sensor_id;sensor_type;location;lat;lon;timestamp;pressure;altitude;pressure_sealevel;temperature;humidity
67373;BME280;54257;54.496;18.412;2022-07-06T00:01:22;100093.23;;;12.83;65.87
67373;BME280;54257;54.496;18.412;2022-07-06T00:03:49;100093.70;;;12.78;66.18
67373;BME280;54257;54.496;18.412;2022-07-06T00:06:16;100091.23;;;12.72;66.48
67373;BME280;54257;54.496;18.412;2022-07-06T00:08:44;100092.89;;;12.66;66.78
67373;BME280;54257;54.496;18.412;2022-07-06T00:11:11;100089.77;;;12.62;66.81
67373;BME280;54257;54.496;18.412;2022-07-06T00:13:38;100091.09;;;12.58;67.09
67373;BME280;54257;54.496;18.412;2022-07-06T00:16:08;100095.16;;;12.54;67.12
67373;BME280;54257;54.496;18.412;2022-07-06T00:18:35;100089.83;;;12.52;67.26
67373;BME280;54257;54.496;18.412;2022-07-06T00:21:02;100086.05;;;12.51;67.46
67373;BME280;54257;54.496;18.412;2022-07-06T00:23:29;100087.23;;;12.49;67.56
67373;BME280;54257;54.496;18.412;2022-07-06T00:25:57;100087.39;;;12.47;67.50
67373;BME280;54257;54.496;18.412;2022-07-06T00:28:24;100088.42;;;12.47;67.58
67373;BME280;54257;54.496;18.412;2022-07-06T00:30:52;100086.52;;;12.48;67.52
67373;BME280;54257;54.496;18.412;2022-07-06T00:33:20;100084.48;;;12.48;67.57
67373;BME280;54257;54.496;18.412;2022-07-06T00:35:48;100078.98;;;12.47;67.57
67373;BME280;54257;54.496;18.412;2022-07-06T00:38:16;100080.16;;;12.46;67.74
67373;BME280;54257;54.496;18.412;2022-07-06T00:40:43;100080.13;;;12.45;67.97
67373;BME280;54257;54.496;18.412;2022-07-06T00:43:10;100081.35;;;12.45;67.88
67373;BME280;54257;54.496;18.412;2022-07-06T00:45:38;100075.17;;;12.44;68.02
67373;BME280;54257;54.496;18.412;2022-07-06T00:48:05;100075.00;;;12.45;67.99
67373;BME280;54257;54.496;18.412;2022-07-06T00:50:33;100068.83;;;12.45;68.24
67373;BME280;54257;54.496;18.412;2022-07-06T00:53:02;100067.84;;;12.47;68.25
67373;BME280;54257;54.496;18.412;2022-07-06T00:55:33;100066.50;;;12.49;68.34
67373;BME280;54257;54.496;18.412;2022-07-06T00:58:02;100070.29;;;12.52;68.25
67373;BME280;54257;54.496;18.412;2022-07-06T01:00:30;100067.25;;;12.56;68.15
67373;BME280;54257;54.496;18.412;2022-07-06T01:02:58;100060.60;;;12.59;68.22
67373;BME280;54257;54.496;18.412;2022-07-06T01:05:25;100057.50;;;12.59;68.41
67373;BME280;54257;54.496;18.412;2022-07-06T01:07:53;100059.61;;;12.63;68.26
67373;BME280;54257;54.496;18.412;2022-07-06T01:10:21;100060.67;;;12.66;68.23
67373;BME280;54257;54.496;18.412;2022-07-06T01:12:49;100057.08;;;12.67;68.18
67373;BME280;54257;54.496;18.412;2022-07-06T01:15:21;100053.82;;;12.66;68.20
67373;BME280;54257;54.496;18.412;2022-07-06T01:17:49;100053.79;;;12.63;68.18
67373;BME280;54257;54.496;18.412;2022-07-06T01:20:17;100051.67;;;12.59;68.25
67373;BME280;54257;54.496;18.412;2022-07-06T01:22:47;100056.09;;;12.53;68.44
67373;BME280;54257;54.496;18.412;2022-07-06T01:25:15;100054.85;;;12.49;68.59
67373;BME280;54257;54.496;18.412;2022-07-06T01:27:43;100056.38;;;12.47;68.75
67373;BME280;54257;54.496;18.412;2022-07-06T01:30:16;100055.50;;;12.46;68.61
67373;BME280;54257;54.496;18.412;2022-07-06T01:32:44;100052.39;;;12.45;68.93
67373;BME280;54257;54.496;18.412;2022-07-06T01:35:13;100047.58;;;12.41;69.65
67373;BME280;54257;54.496;18.412;2022-07-06T01:37:42;100046.32;;;12.37;69.92
67373;BME280;54257;54.496;18.412;2022-07-06T01:40:11;100048.35;;;12.35;69.67
67373;BME280;54257;54.496;18.412;2022-07-06T01:42:39;100048.01;;;12.34;69.63
67373;BME280;54257;54.496;18.412;2022-07-06T01:45:07;100049.70;;;12.32;69.62
67373;BME280;54257;54.496;18.412;2022-07-06T01:47:35;100053.61;;;12.29;69.83
67373;BME280;54257;54.496;18.412;2022-07-06T01:50:06;100051.52;;;12.26;69.94
67373;BME280;54257;54.496;18.412;2022-07-06T01:52:34;100048.27;;;12.25;70.25
67373;BME280;54257;54.496;18.412;2022-07-06T01:55:01;100048.60;;;12.25;70.27
67373;BME280;54257;54.496;18.412;2022-07-06T01:57:28;100050.14;;;12.25;70.60
67373;BME280;54257;54.496;18.412;2022-07-06T01:59:56;100048.43;;;12.25;71.57
67373;BME280;54257;54.496;18.412;2022-07-06T02:02:23;100046.88;;;12.25;71.99
67373;BME280;54257;54.496;18.412;2022-07-06T02:04:50;100046.71;;;12.25;72.42
67373;BME280;54257;54.496;18.412;2022-07-06T02:07:17;100047.91;;;12.26;72.02
67373;BME280;54257;54.496;18.412;2022-07-06T02:09:44;100049.12;;;12.27;72.35
67373;BME280;54257;54.496;18.412;2022-07-06T02:12:11;100051.02;;;12.27;72.23
67373;BME280;54257;54.496;18.412;2022-07-06T02:14:38;100051.88;;;12.28;72.33
67373;BME280;54257;54.496;18.412;2022-07-06T02:17:05;100054.10;;;12.28;72.39
67373;BME280;54257;54.496;18.412;2022-07-06T02:19:33;100055.64;;;12.28;72.41
67373;BME280;54257;54.496;18.412;2022-07-06T02:22:00;100054.44;;;12.27;72.50
67373;BME280;54257;54.496;18.412;2022-07-06T02:24:30;100052.55;;;12.27;72.79
67373;BME280;54257;54.496;18.412;2022-07-06T02:26:57;100050.67;;;12.28;72.79
67373;BME280;54257;54.496;18.412;2022-07-06T02:29:24;100052.58;;;12.29;72.68
67373;BME280;54257;54.496;18.412;2022-07-06T02:31:52;100053.28;;;12.30;72.79
67373;BME280;54257;54.496;18.412;2022-07-06T02:34:19;100051.74;;;12.30;73.00
67373;BME280;54257;54.496;18.412;2022-07-06T02:36:46;100048.65;;;12.30;73.09
67373;BME280;54257;54.496;18.412;2022-07-06T02:39:13;100045.71;;;12.29;73.19
67373;BME280;54257;54.496;18.412;2022-07-06T02:41:40;100047.78;;;12.29;73.30
67373;BME280;54257;54.496;18.412;2022-07-06T02:44:07;100043.66;;;12.29;73.18
67373;BME280;54257;54.496;18.412;2022-07-06T02:46:38;100044.34;;;12.29;73.52
67373;BME280;54257;54.496;18.412;2022-07-06T02:49:07;100049.52;;;12.30;73.43
67373;BME280;54257;54.496;18.412;2022-07-06T02:51:35;100049.16;;;12.30;73.57
67373;BME280;54257;54.496;18.412;2022-07-06T02:54:05;100050.34;;;12.29;73.62
67373;BME280;54257;54.496;18.412;2022-07-06T02:56:32;100051.70;;;12.28;73.92
67373;BME280;54257;54.496;18.412;2022-07-06T02:58:59;100054.60;;;12.27;73.91
67373;BME280;54257;54.496;18.412;2022-07-06T03:01:26;100057.01;;;12.28;74.05
67373;BME280;54257;54.496;18.412;2022-07-06T03:03:53;100056.36;;;12.30;74.24
67373;BME280;54257;54.496;18.412;2022-07-06T03:06:20;100053.98;;;12.33;74.35
67373;BME280;54257;54.496;18.412;2022-07-06T03:08:47;100052.64;;;12.35;74.49
67373;BME280;54257;54.496;18.412;2022-07-06T03:11:14;100051.66;;;12.39;74.61
67373;BME280;54257;54.496;18.412;2022-07-06T03:13:41;100049.64;;;12.44;74.65
67373;BME280;54257;54.496;18.412;2022-07-06T03:16:08;100044.38;;;12.48;74.64
67373;BME280;54257;54.496;18.412;2022-07-06T03:18:38;100041.02;;;12.54;74.75
67373;BME280;54257;54.496;18.412;2022-07-06T03:21:05;100040.39;;;12.60;74.87
67373;BME280;54257;54.496;18.412;2022-07-06T03:23:33;100040.95;;;12.65;74.99
67373;BME280;54257;54.496;18.412;2022-07-06T03:26:00;100038.08;;;12.70;75.18
67373;BME280;54257;54.496;18.412;2022-07-06T03:28:27;100033.00;;;12.76;75.31
67373;BME280;54257;54.496;18.412;2022-07-06T03:30:54;100030.70;;;12.87;75.51
67373;BME280;54257;54.496;18.412;2022-07-06T03:33:21;100027.18;;;12.99;75.32
67373;BME280;54257;54.496;18.412;2022-07-06T03:35:48;100026.90;;;13.07;75.37
67373;BME280;54257;54.496;18.412;2022-07-06T03:38:15;100027.83;;;13.14;75.27
67373;BME280;54257;54.496;18.412;2022-07-06T03:40:42;100029.10;;;13.22;75.45
67373;BME280;54257;54.496;18.412;2022-07-06T03:43:10;100025.21;;;13.28;75.45
67373;BME280;54257;54.496;18.412;2022-07-06T03:45:37;100022.65;;;13.33;75.22
67373;BME280;54257;54.496;18.412;2022-07-06T03:48:04;100021.84;;;13.40;75.88
67373;BME280;54257;54.496;18.412;2022-07-06T03:50:31;100021.35;;;13.45;75.66
67373;BME280;54257;54.496;18.412;2022-07-06T03:52:59;100023.29;;;13.52;75.66
67373;BME280;54257;54.496;18.412;2022-07-06T03:55:26;100023.48;;;13.57;75.84
67373;BME280;54257;54.496;18.412;2022-07-06T03:57:54;100024.55;;;13.63;75.58
67373;BME280;54257;54.496;18.412;2022-07-06T04:00:22;100025.78;;;13.70;75.58
67373;BME280;54257;54.496;18.412;2022-07-06T04:02:49;100025.48;;;13.79;75.38
67373;BME280;54257;54.496;18.412;2022-07-06T04:05:16;100025.70;;;13.85;75.44
67373;BME280;54257;54.496;18.412;2022-07-06T04:07:48;100027.24;;;13.91;75.49
67373;BME280;54257;54.496;18.412;2022-07-06T04:10:16;100028.13;;;13.97;75.51
67373;BME280;54257;54.496;18.412;2022-07-06T04:12:46;100029.52;;;14.02;75.50
67373;BME280;54257;54.496;18.412;2022-07-06T04:15:13;100026.80;;;14.08;75.45
67373;BME280;54257;54.496;18.412;2022-07-06T04:17:40;100030.42;;;14.14;75.82
67373;BME280;54257;54.496;18.412;2022-07-06T04:20:20;100029.24;;;14.21;75.61
67373;BME280;54257;54.496;18.412;2022-07-06T04:22:48;100029.60;;;14.26;75.74
67373;BME280;54257;54.496;18.412;2022-07-06T04:25:18;100028.92;;;14.30;75.90
67373;BME280;54257;54.496;18.412;2022-07-06T04:27:45;100021.21;;;14.35;75.73
67373;BME280;54257;54.496;18.412;2022-07-06T04:30:12;100015.19;;;14.40;75.48
67373;BME280;54257;54.496;18.412;2022-07-06T04:32:39;100016.07;;;14.43;75.16
67373;BME280;54257;54.496;18.412;2022-07-06T04:35:06;100011.80;;;14.45;75.06
67373;BME280;54257;54.496;18.412;2022-07-06T04:37:33;100009.55;;;14.45;75.06
67373;BME280;54257;54.496;18.412;2022-07-06T04:40:00;100012.98;;;14.46;74.74
67373;BME280;54257;54.496;18.412;2022-07-06T04:42:28;100013.34;;;14.46;74.59
67373;BME280;54257;54.496;18.412;2022-07-06T04:44:56;100013.69;;;14.47;74.46
67373;BME280;54257;54.496;18.412;2022-07-06T04:47:23;100011.13;;;14.51;74.60
67373;BME280;54257;54.496;18.412;2022-07-06T04:49:53;100011.64;;;14.56;74.55
67373;BME280;54257;54.496;18.412;2022-07-06T04:52:23;100009.25;;;14.61;74.49
67373;BME280;54257;54.496;18.412;2022-07-06T04:54:51;100006.66;;;14.65;74.75
67373;BME280;54257;54.496;18.412;2022-07-06T04:57:18;100008.39;;;14.70;74.87
67373;BME280;54257;54.496;18.412;2022-07-06T04:59:45;100006.67;;;14.77;74.87
67373;BME280;54257;54.496;18.412;2022-07-06T05:02:12;100004.27;;;14.83;74.86
67373;BME280;54257;54.496;18.412;2022-07-06T05:04:39;100005.64;;;14.90;74.90
67373;BME280;54257;54.496;18.412;2022-07-06T05:07:06;100005.46;;;14.98;74.58
67373;BME280;54257;54.496;18.412;2022-07-06T05:09:34;100003.22;;;15.08;74.41
67373;BME280;54257;54.496;18.412;2022-07-06T05:12:02;99997.70;;;15.19;73.87
67373;BME280;54257;54.496;18.412;2022-07-06T05:14:30;100000.77;;;15.31;73.26
67373;BME280;54257;54.496;18.412;2022-07-06T05:16:57;100001.09;;;15.46;72.63
67373;BME280;54257;54.496;18.412;2022-07-06T05:19:25;99997.96;;;15.59;72.36
67373;BME280;54257;54.496;18.412;2022-07-06T05:21:53;99995.52;;;15.75;72.14
67373;BME280;54257;54.496;18.412;2022-07-06T05:24:20;99989.23;;;15.92;71.37
67373;BME280;54257;54.496;18.412;2022-07-06T05:26:47;99993.45;;;16.09;70.60
67373;BME280;54257;54.496;18.412;2022-07-06T05:29:14;99989.73;;;16.26;69.88
67373;BME280;54257;54.496;18.412;2022-07-06T05:31:41;99986.02;;;16.43;69.78
67373;BME280;54257;54.496;18.412;2022-07-06T05:34:08;99982.77;;;16.61;68.74
67373;BME280;54257;54.496;18.412;2022-07-06T05:36:35;99980.94;;;16.80;68.51
67373;BME280;54257;54.496;18.412;2022-07-06T05:39:02;99976.77;;;17.01;68.18
67373;BME280;54257;54.496;18.412;2022-07-06T05:41:30;99981.04;;;17.23;67.60
67373;BME280;54257;54.496;18.412;2022-07-06T05:43:57;99974.20;;;17.48;66.82
67373;BME280;54257;54.496;18.412;2022-07-06T05:46:24;99974.86;;;17.68;65.52
67373;BME280;54257;54.496;18.412;2022-07-06T05:48:52;99967.17;;;17.89;65.12
67373;BME280;54257;54.496;18.412;2022-07-06T05:51:38;99961.79;;;18.16;64.05
67373;BME280;54257;54.496;18.412;2022-07-06T05:54:05;99954.73;;;18.36;63.24
67373;BME280;54257;54.496;18.412;2022-07-06T05:56:32;99955.87;;;18.64;63.62
67373;BME280;54257;54.496;18.412;2022-07-06T05:58:59;99956.76;;;18.94;63.02
67373;BME280;54257;54.496;18.412;2022-07-06T06:01:26;99956.09;;;19.21;61.65
67373;BME280;54257;54.496;18.412;2022-07-06T06:03:53;99953.30;;;19.49;61.94
67373;BME280;54257;54.496;18.412;2022-07-06T06:06:20;99954.86;;;19.76;61.07
67373;BME280;54257;54.496;18.412;2022-07-06T06:08:47;99947.77;;;19.99;59.88
67373;BME280;54257;54.496;18.412;2022-07-06T06:11:14;99938.77;;;20.14;59.54
67373;BME280;54257;54.496;18.412;2022-07-06T06:13:41;99940.84;;;20.36;58.78
67373;BME280;54257;54.496;18.412;2022-07-06T06:16:08;99938.63;;;20.57;58.13
67373;BME280;54257;54.496;18.412;2022-07-06T06:18:36;99939.05;;;20.68;56.87
67373;BME280;54257;54.496;18.412;2022-07-06T06:21:03;99937.35;;;20.87;56.75
67373;BME280;54257;54.496;18.412;2022-07-06T06:23:30;99943.41;;;21.08;55.90
67373;BME280;54257;54.496;18.412;2022-07-06T06:25:57;99939.52;;;21.23;55.60
67373;BME280;54257;54.496;18.412;2022-07-06T06:28:24;99938.77;;;21.45;55.65
67373;BME280;54257;54.496;18.412;2022-07-06T06:30:51;99938.20;;;21.58;54.71
67373;BME280;54257;54.496;18.412;2022-07-06T06:33:20;99934.58;;;21.57;52.60
67373;BME280;54257;54.496;18.412;2022-07-06T06:35:50;99934.34;;;21.47;52.78
67373;BME280;54257;54.496;18.412;2022-07-06T06:38:20;99934.35;;;21.65;53.09
67373;BME280;54257;54.496;18.412;2022-07-06T06:40:48;99932.05;;;21.84;52.69
67373;BME280;54257;54.496;18.412;2022-07-06T06:43:15;99929.23;;;21.86;52.09
67373;BME280;54257;54.496;18.412;2022-07-06T06:45:42;99926.95;;;21.91;50.87
67373;BME280;54257;54.496;18.412;2022-07-06T06:48:11;99926.30;;;21.90;51.26
67373;BME280;54257;54.496;18.412;2022-07-06T06:50:38;99922.36;;;21.88;51.32
67373;BME280;54257;54.496;18.412;2022-07-06T06:53:05;99919.49;;;22.14;51.66
67373;BME280;54257;54.496;18.412;2022-07-06T06:55:33;99910.02;;;22.33;49.38
67373;BME280;54257;54.496;18.412;2022-07-06T06:58:00;99906.70;;;22.23;47.70
67373;BME280;54257;54.496;18.412;2022-07-06T07:00:27;99911.64;;;21.97;48.59
67373;BME280;54257;54.496;18.412;2022-07-06T07:02:55;99910.67;;;21.89;49.81
67373;BME280;54257;54.496;18.412;2022-07-06T07:05:23;99910.63;;;21.85;50.26
67373;BME280;54257;54.496;18.412;2022-07-06T07:07:50;99910.87;;;21.82;50.67
67373;BME280;54257;54.496;18.412;2022-07-06T07:10:17;99915.77;;;21.82;50.19
67373;BME280;54257;54.496;18.412;2022-07-06T07:12:48;99913.67;;;21.76;49.16
67373;BME280;54257;54.496;18.412;2022-07-06T07:15:16;99918.39;;;21.64;49.71
67373;BME280;54257;54.496;18.412;2022-07-06T07:17:43;99916.78;;;21.47;50.04
67373;BME280;54257;54.496;18.412;2022-07-06T07:20:10;99917.44;;;21.30;50.28
67373;BME280;54257;54.496;18.412;2022-07-06T07:22:37;99918.15;;;21.23;50.85
67373;BME280;54257;54.496;18.412;2022-07-06T07:25:07;99921.77;;;21.05;50.37
67373;BME280;54257;54.496;18.412;2022-07-06T07:27:34;99916.45;;;20.83;50.70
67373;BME280;54257;54.496;18.412;2022-07-06T07:30:02;99921.52;;;20.61;50.90
67373;BME280;54257;54.496;18.412;2022-07-06T07:32:29;99925.84;;;20.39;51.42
67373;BME280;54257;54.496;18.412;2022-07-06T07:34:57;99925.98;;;20.27;51.85
67373;BME280;54257;54.496;18.412;2022-07-06T07:37:24;99927.61;;;20.16;52.16
67373;BME280;54257;54.496;18.412;2022-07-06T07:39:54;99928.80;;;20.32;53.32
67373;BME280;54257;54.496;18.412;2022-07-06T07:42:21;99929.07;;;20.72;53.62
67373;BME280;54257;54.496;18.412;2022-07-06T07:44:51;99925.00;;;21.21;52.07
67373;BME280;54257;54.496;18.412;2022-07-06T07:47:21;99921.24;;;21.55;50.50
67373;BME280;54257;54.496;18.412;2022-07-06T07:49:48;99920.84;;;21.75;48.84
67373;BME280;54257;54.496;18.412;2022-07-06T07:52:15;99922.70;;;21.76;47.38
67373;BME280;54257;54.496;18.412;2022-07-06T07:54:42;99925.98;;;22.07;47.64
67373;BME280;54257;54.496;18.412;2022-07-06T07:57:10;99930.27;;;22.47;46.86
67373;BME280;54257;54.496;18.412;2022-07-06T07:59:37;99930.30;;;22.73;46.36
67373;BME280;54257;54.496;18.412;2022-07-06T08:02:04;99929.48;;;22.66;44.31
67373;BME280;54257;54.496;18.412;2022-07-06T08:04:33;99932.31;;;22.43;43.95
67373;BME280;54257;54.496;18.412;2022-07-06T08:07:01;99926.84;;;22.13;44.07
67373;BME280;54257;54.496;18.412;2022-07-06T08:09:29;99928.98;;;21.88;44.11
67373;BME280;54257;54.496;18.412;2022-07-06T08:11:56;99932.25;;;21.66;45.26
67373;BME280;54257;54.496;18.412;2022-07-06T08:14:25;99929.65;;;21.53;45.77
67373;BME280;54257;54.496;18.412;2022-07-06T08:16:52;99928.83;;;21.58;46.38
67373;BME280;54257;54.496;18.412;2022-07-06T08:19:19;99928.18;;;21.91;45.71
67373;BME280;54257;54.496;18.412;2022-07-06T08:21:48;99925.95;;;22.19;44.79
67373;BME280;54257;54.496;18.412;2022-07-06T08:24:15;99924.29;;;22.27;44.88
67373;BME280;54257;54.496;18.412;2022-07-06T08:26:42;99927.58;;;22.23;44.64
67373;BME280;54257;54.496;18.412;2022-07-06T08:29:09;99941.09;;;22.13;44.95
67373;BME280;54257;54.496;18.412;2022-07-06T08:31:36;99952.83;;;21.87;44.62
67373;BME280;54257;54.496;18.412;2022-07-06T08:34:03;99967.09;;;21.39;44.41
67373;BME280;54257;54.496;18.412;2022-07-06T08:36:31;99968.77;;;20.88;45.04
67373;BME280;54257;54.496;18.412;2022-07-06T08:38:58;99966.13;;;20.39;46.38
67373;BME280;54257;54.496;18.412;2022-07-06T08:41:28;99978.77;;;20.01;47.32
67373;BME280;54257;54.496;18.412;2022-07-06T08:43:56;99985.74;;;19.65;48.40
67373;BME280;54257;54.496;18.412;2022-07-06T08:46:27;99987.60;;;19.31;49.84
67373;BME280;54257;54.496;18.412;2022-07-06T08:48:55;99985.86;;;19.03;50.71
67373;BME280;54257;54.496;18.412;2022-07-06T08:51:24;99988.26;;;18.85;51.70
67373;BME280;54257;54.496;18.412;2022-07-06T08:53:53;99984.63;;;18.73;52.53
67373;BME280;54257;54.496;18.412;2022-07-06T08:56:22;99981.41;;;18.69;53.01
67373;BME280;54257;54.496;18.412;2022-07-06T08:58:50;99977.73;;;18.71;53.68
67373;BME280;54257;54.496;18.412;2022-07-06T09:01:17;99973.80;;;18.79;53.99
67373;BME280;54257;54.496;18.412;2022-07-06T09:03:45;99968.75;;;18.82;54.20
67373;BME280;54257;54.496;18.412;2022-07-06T09:06:23;99969.84;;;18.97;54.50
67373;BME280;54257;54.496;18.412;2022-07-06T09:08:53;99966.86;;;19.19;54.69
67373;BME280;54257;54.496;18.412;2022-07-06T09:11:22;99968.42;;;19.38;54.34
67373;BME280;54257;54.496;18.412;2022-07-06T09:13:52;99963.48;;;19.50;54.18
67373;BME280;54257;54.496;18.412;2022-07-06T09:16:26;99961.42;;;19.60;54.15
67373;BME280;54257;54.496;18.412;2022-07-06T09:18:54;99961.74;;;19.78;54.25
67373;BME280;54257;54.496;18.412;2022-07-06T09:21:24;99953.29;;;20.23;53.83
67373;BME280;54257;54.496;18.412;2022-07-06T09:23:56;99949.41;;;20.70;52.87
67373;BME280;54257;54.496;18.412;2022-07-06T09:26:24;99954.06;;;20.79;51.57
67373;BME280;54257;54.496;18.412;2022-07-06T09:28:54;99956.13;;;20.86;51.54
67373;BME280;54257;54.496;18.412;2022-07-06T09:31:22;99963.77;;;20.93;51.40
67373;BME280;54257;54.496;18.412;2022-07-06T09:33:56;99966.05;;;20.98;51.49
67373;BME280;54257;54.496;18.412;2022-07-06T09:36:49;99961.67;;;20.99;50.76
67373;BME280;54257;54.496;18.412;2022-07-06T09:41:46;99963.76;;;20.87;50.92
67373;BME280;54257;54.496;18.412;2022-07-06T09:44:21;99966.14;;;20.75;50.61
67373;BME280;54257;54.496;18.412;2022-07-06T09:46:50;99968.45;;;20.66;50.85
67373;BME280;54257;54.496;18.412;2022-07-06T09:49:20;99964.52;;;20.56;51.29
67373;BME280;54257;54.496;18.412;2022-07-06T09:51:52;99968.96;;;20.52;51.73
67373;BME280;54257;54.496;18.412;2022-07-06T09:54:23;99971.38;;;20.44;52.28
67373;BME280;54257;54.496;18.412;2022-07-06T09:56:52;99970.14;;;20.46;52.85
67373;BME280;54257;54.496;18.412;2022-07-06T09:59:22;99974.35;;;20.58;52.94
67373;BME280;54257;54.496;18.412;2022-07-06T10:02:01;99969.31;;;20.80;53.18
67373;BME280;54257;54.496;18.412;2022-07-06T10:04:30;99968.77;;;21.21;52.70
67373;BME280;54257;54.496;18.412;2022-07-06T10:06:58;99965.08;;;21.67;52.32
67373;BME280;54257;54.496;18.412;2022-07-06T10:09:27;99963.54;;;22.19;51.43
67373;BME280;54257;54.496;18.412;2022-07-06T10:11:57;99970.61;;;22.32;48.38
67373;BME280;54257;54.496;18.412;2022-07-06T10:14:27;99992.95;;;21.83;49.02
67373;BME280;54257;54.496;18.412;2022-07-06T10:16:57;100000.75;;;21.21;51.56
67373;BME280;54257;54.496;18.412;2022-07-06T10:19:27;100001.34;;;20.77;53.07
67373;BME280;54257;54.496;18.412;2022-07-06T10:21:59;100009.47;;;20.40;54.52
67373;BME280;54257;54.496;18.412;2022-07-06T10:24:28;100015.15;;;20.03;55.46
67373;BME280;54257;54.496;18.412;2022-07-06T10:26:56;100018.46;;;19.76;55.93
67373;BME280;54257;54.496;18.412;2022-07-06T10:29:24;100019.31;;;19.60;57.05
67373;BME280;54257;54.496;18.412;2022-07-06T10:31:53;100018.42;;;19.50;57.82
67373;BME280;54257;54.496;18.412;2022-07-06T10:34:21;100017.70;;;19.43;58.44
67373;BME280;54257;54.496;18.412;2022-07-06T10:36:51;100017.14;;;19.35;58.86
67373;BME280;54257;54.496;18.412;2022-07-06T10:39:36;100014.95;;;19.22;59.41
67373;BME280;54257;54.496;18.412;2022-07-06T10:42:57;100013.33;;;19.17;60.03
67373;BME280;54257;54.496;18.412;2022-07-06T10:53:12;100006.38;;;19.18;62.34
67373;BME280;54257;54.496;18.412;2022-07-06T10:55:44;100004.83;;;19.27;62.47
67373;BME280;54257;54.496;18.412;2022-07-06T10:58:14;100003.42;;;19.38;62.92
67373;BME280;54257;54.496;18.412;2022-07-06T11:00:51;100003.64;;;19.44;62.47
67373;BME280;54257;54.496;18.412;2022-07-06T11:03:41;100002.98;;;19.43;62.22
67373;BME280;54257;54.496;18.412;2022-07-06T11:06:19;99999.08;;;19.47;62.96
67373;BME280;54257;54.496;18.412;2022-07-06T11:08:52;99999.38;;;19.61;63.63
67373;BME280;54257;54.496;18.412;2022-07-06T11:13:59;99990.77;;;20.07;63.82
67373;BME280;54257;54.496;18.412;2022-07-06T11:16:32;99986.30;;;20.36;63.52
67373;BME280;54257;54.496;18.412;2022-07-06T11:19:20;99982.66;;;20.66;63.11
67373;BME280;54257;54.496;18.412;2022-07-06T11:24:32;99975.27;;;21.32;61.54
67373;BME280;54257;54.496;18.412;2022-07-06T11:27:00;99975.71;;;21.41;60.00
67373;BME280;54257;54.496;18.412;2022-07-06T11:29:29;99969.63;;;21.28;58.07
67373;BME280;54257;54.496;18.412;2022-07-06T11:31:58;99966.03;;;21.33;58.24
67373;BME280;54257;54.496;18.412;2022-07-06T11:34:29;99962.50;;;21.54;58.34
67373;BME280;54257;54.496;18.412;2022-07-06T11:37:05;99960.09;;;21.71;57.26
67373;BME280;54257;54.496;18.412;2022-07-06T11:39:40;99956.95;;;21.89;56.84
67373;BME280;54257;54.496;18.412;2022-07-06T11:42:12;99959.24;;;22.28;56.21
67373;BME280;54257;54.496;18.412;2022-07-06T11:44:40;99952.81;;;22.71;54.22
67373;BME280;54257;54.496;18.412;2022-07-06T11:47:10;99952.88;;;22.79;52.50
67373;BME280;54257;54.496;18.412;2022-07-06T11:49:41;99949.30;;;22.83;52.78
67373;BME280;54257;54.496;18.412;2022-07-06T11:52:11;99953.60;;;22.90;51.90
67373;BME280;54257;54.496;18.412;2022-07-06T11:54:40;99953.38;;;22.91;49.52
67373;BME280;54257;54.496;18.412;2022-07-06T11:57:12;99952.73;;;23.05;48.55
67373;BME280;54257;54.496;18.412;2022-07-06T11:59:41;99952.34;;;23.06;48.44
67373;BME280;54257;54.496;18.412;2022-07-06T12:02:10;99955.08;;;22.98;48.00
67373;BME280;54257;54.496;18.412;2022-07-06T12:04:45;99956.29;;;22.93;48.19
67373;BME280;54257;54.496;18.412;2022-07-06T12:07:14;99958.09;;;22.80;49.18
67373;BME280;54257;54.496;18.412;2022-07-06T12:09:44;99953.52;;;22.81;48.98
67373;BME280;54257;54.496;18.412;2022-07-06T12:12:12;99956.96;;;22.88;48.96
67373;BME280;54257;54.496;18.412;2022-07-06T12:14:41;99953.25;;;23.00;48.65
67373;BME280;54257;54.496;18.412;2022-07-06T12:17:15;99950.92;;;23.02;48.71
67373;BME280;54257;54.496;18.412;2022-07-06T12:19:43;99956.45;;;23.13;48.18
67373;BME280;54257;54.496;18.412;2022-07-06T12:22:11;99958.74;;;23.27;48.05
67373;BME280;54257;54.496;18.412;2022-07-06T12:24:43;99957.05;;;23.55;47.54
67373;BME280;54257;54.496;18.412;2022-07-06T12:27:19;99959.16;;;23.54;45.31
67373;BME280;54257;54.496;18.412;2022-07-06T12:29:48;99960.02;;;23.21;45.97
67373;BME280;54257;54.496;18.412;2022-07-06T12:32:21;99965.42;;;22.79;46.74
67373;BME280;54257;54.496;18.412;2022-07-06T12:35:06;99967.95;;;22.40;47.70
67373;BME280;54257;54.496;18.412;2022-07-06T12:37:35;99972.94;;;22.02;48.60
67373;BME280;54257;54.496;18.412;2022-07-06T12:40:11;99970.85;;;21.84;51.12
67373;BME280;54257;54.496;18.412;2022-07-06T12:42:48;99971.06;;;21.82;52.96
67373;BME280;54257;54.496;18.412;2022-07-06T12:45:16;99973.73;;;21.86;54.25
67373;BME280;54257;54.496;18.412;2022-07-06T12:48:00;99970.30;;;21.85;54.47
67373;BME280;54257;54.496;18.412;2022-07-06T12:50:36;99974.02;;;21.64;53.56
67373;BME280;54257;54.496;18.412;2022-07-06T12:53:05;99973.08;;;21.42;53.33
67373;BME280;54257;54.496;18.412;2022-07-06T12:55:33;99969.83;;;21.20;52.86
67373;BME280;54257;54.496;18.412;2022-07-06T12:58:00;99972.09;;;20.94;52.32
67373;BME280;54257;54.496;18.412;2022-07-06T13:00:27;99969.98;;;20.74;52.02
67373;BME280;54257;54.496;18.412;2022-07-06T13:02:55;99972.69;;;20.56;51.74
67373;BME280;54257;54.496;18.412;2022-07-06T13:05:24;99968.23;;;20.37;51.36
67373;BME280;54257;54.496;18.412;2022-07-06T13:07:57;99965.20;;;20.33;51.72
67373;BME280;54257;54.496;18.412;2022-07-06T13:10:26;99966.13;;;20.38;51.75